sensor_id;sensor_type;location;lat;lon;timestamp;P1;durP1;ratioP1;P2;durP2;ratioP2
54977;SDS011;40873;47.522;19.106;2023-05-07T00:00:38;10.90;;;7.32;;
54977;SDS011;40873;47.522;19.106;2023-05-07T00:03:19;10.88;;;7.38;;
54977;SDS011;40873;47.522;19.106;2023-05-07T00:05:48;13.10;;;8.13;;
54977;SDS011;40873;47.522;19.106;2023-05-07T00:08:15;11.93;;;8.10;;
54977;SDS011;40873;47.522;19.106;2023-05-07T00:10:43;10.10;;;7.32;;
54977;SDS011;40873;47.522;19.106;2023-05-07T00:13:11;15.02;;;8.75;;
54977;SDS011;40873;47.522;19.106;2023-05-07T00:15:38;13.20;;;9.35;;
54977;SDS011;40873;47.522;19.106;2023-05-07T00:18:05;15.32;;;9.60;;
54977;SDS011;40873;47.522;19.106;2023-05-07T00:20:35;18.30;;;12.05;;
54977;SDS011;40873;47.522;19.106;2023-05-07T00:23:02;17.60;;;10.85;;
54977;SDS011;40873;47.522;19.106;2023-05-07T00:25:29;15.52;;;9.57;;
54977;SDS011;40873;47.522;19.106;2023-05-07T00:27:58;15.82;;;10.68;;
54977;SDS011;40873;47.522;19.106;2023-05-07T00:30:29;16.20;;;10.05;;
54977;SDS011;40873;47.522;19.106;2023-05-07T00:32:57;19.08;;;12.45;;
54977;SDS011;40873;47.522;19.106;2023-05-07T00:35:24;17.25;;;10.65;;
54977;SDS011;40873;47.522;19.106;2023-05-07T00:37:51;18.05;;;11.18;;
54977;SDS011;40873;47.522;19.106;2023-05-07T00:40:19;18.02;;;11.43;;
54977;SDS011;40873;47.522;19.106;2023-05-07T00:42:47;25.50;;;12.27;;
54977;SDS011;40873;47.522;19.106;2023-05-07T00:45:15;16.38;;;11.60;;
54977;SDS011;40873;47.522;19.106;2023-05-07T00:47:43;17.60;;;11.88;;
54977;SDS011;40873;47.522;19.106;2023-05-07T00:50:12;16.40;;;12.07;;
54977;SDS011;40873;47.522;19.106;2023-05-07T00:52:40;21.83;;;13.15;;
54977;SDS011;40873;47.522;19.106;2023-05-07T00:55:08;19.52;;;11.48;;
54977;SDS011;40873;47.522;19.106;2023-05-07T00:57:36;15.75;;;11.38;;
54977;SDS011;40873;47.522;19.106;2023-05-07T01:00:06;17.05;;;11.82;;
54977;SDS011;40873;47.522;19.106;2023-05-07T01:02:36;18.65;;;12.73;;
54977;SDS011;40873;47.522;19.106;2023-05-07T01:05:03;16.92;;;12.27;;
54977;SDS011;40873;47.522;19.106;2023-05-07T01:07:33;21.42;;;13.27;;
54977;SDS011;40873;47.522;19.106;2023-05-07T01:10:01;20.23;;;12.65;;
54977;SDS011;40873;47.522;19.106;2023-05-07T01:12:29;15.52;;;11.20;;
54977;SDS011;40873;47.522;19.106;2023-05-07T01:14:58;20.17;;;12.27;;
54977;SDS011;40873;47.522;19.106;2023-05-07T01:17:26;21.00;;;13.55;;
54977;SDS011;40873;47.522;19.106;2023-05-07T01:19:53;18.20;;;12.60;;
54977;SDS011;40873;47.522;19.106;2023-05-07T01:22:28;18.33;;;12.70;;
54977;SDS011;40873;47.522;19.106;2023-05-07T01:24:59;21.13;;;13.30;;
54977;SDS011;40873;47.522;19.106;2023-05-07T01:27:28;18.50;;;12.82;;
54977;SDS011;40873;47.522;19.106;2023-05-07T01:29:55;25.65;;;14.35;;
54977;SDS011;40873;47.522;19.106;2023-05-07T01:32:46;20.75;;;13.05;;
54977;SDS011;40873;47.522;19.106;2023-05-07T01:35:20;22.50;;;12.85;;
54977;SDS011;40873;47.522;19.106;2023-05-07T01:37:54;23.55;;;14.63;;
54977;SDS011;40873;47.522;19.106;2023-05-07T01:40:21;23.00;;;14.20;;
54977;SDS011;40873;47.522;19.106;2023-05-07T01:42:52;20.80;;;14.77;;
54977;SDS011;40873;47.522;19.106;2023-05-07T01:45:24;22.75;;;13.48;;
54977;SDS011;40873;47.522;19.106;2023-05-07T01:47:52;18.95;;;11.88;;
54977;SDS011;40873;47.522;19.106;2023-05-07T01:50:21;20.88;;;12.48;;
54977;SDS011;40873;47.522;19.106;2023-05-07T01:52:50;19.20;;;13.02;;
54977;SDS011;40873;47.522;19.106;2023-05-07T01:55:17;17.17;;;12.40;;
54977;SDS011;40873;47.522;19.106;2023-05-07T01:57:44;17.15;;;12.00;;
54977;SDS011;40873;47.522;19.106;2023-05-07T02:00:14;16.23;;;11.18;;
54977;SDS011;40873;47.522;19.106;2023-05-07T02:02:42;19.17;;;11.55;;
54977;SDS011;40873;47.522;19.106;2023-05-07T02:05:09;22.88;;;12.80;;
54977;SDS011;40873;47.522;19.106;2023-05-07T02:07:38;19.63;;;12.65;;
54977;SDS011;40873;47.522;19.106;2023-05-07T02:10:05;17.77;;;11.90;;
54977;SDS011;40873;47.522;19.106;2023-05-07T02:12:32;21.52;;;13.18;;
54977;SDS011;40873;47.522;19.106;2023-05-07T02:15:00;17.52;;;12.18;;
54977;SDS011;40873;47.522;19.106;2023-05-07T02:17:27;22.08;;;12.98;;
54977;SDS011;40873;47.522;19.106;2023-05-07T02:19:54;20.63;;;13.50;;
54977;SDS011;40873;47.522;19.106;2023-05-07T02:22:22;19.98;;;12.90;;
54977;SDS011;40873;47.522;19.106;2023-05-07T02:24:49;18.05;;;13.02;;
54977;SDS011;40873;47.522;19.106;2023-05-07T02:27:16;17.83;;;12.68;;
54977;SDS011;40873;47.522;19.106;2023-05-07T02:29:43;20.00;;;12.63;;
54977;SDS011;40873;47.522;19.106;2023-05-07T02:32:10;19.02;;;12.98;;
54977;SDS011;40873;47.522;19.106;2023-05-07T02:34:38;20.02;;;12.23;;
54977;SDS011;40873;47.522;19.106;2023-05-07T02:37:05;18.55;;;12.55;;
54977;SDS011;40873;47.522;19.106;2023-05-07T02:39:31;21.63;;;14.27;;
54977;SDS011;40873;47.522;19.106;2023-05-07T02:42:01;19.95;;;12.68;;
54977;SDS011;40873;47.522;19.106;2023-05-07T02:44:28;21.08;;;13.20;;
54977;SDS011;40873;47.522;19.106;2023-05-07T02:47:05;20.20;;;12.73;;
54977;SDS011;40873;47.522;19.106;2023-05-07T02:49:34;21.00;;;12.60;;
54977;SDS011;40873;47.522;19.106;2023-05-07T02:52:01;20.15;;;12.48;;
54977;SDS011;40873;47.522;19.106;2023-05-07T02:54:31;21.65;;;13.02;;
54977;SDS011;40873;47.522;19.106;2023-05-07T02:56:58;18.98;;;12.05;;
54977;SDS011;40873;47.522;19.106;2023-05-07T02:59:27;22.45;;;12.85;;
54977;SDS011;40873;47.522;19.106;2023-05-07T03:01:54;19.77;;;12.25;;
54977;SDS011;40873;47.522;19.106;2023-05-07T03:04:24;19.90;;;12.57;;
54977;SDS011;40873;47.522;19.106;2023-05-07T03:06:51;21.27;;;12.70;;
54977;SDS011;40873;47.522;19.106;2023-05-07T03:09:18;20.65;;;12.55;;
54977;SDS011;40873;47.522;19.106;2023-05-07T03:11:46;22.30;;;13.40;;
54977;SDS011;40873;47.522;19.106;2023-05-07T03:14:16;20.65;;;13.48;;
54977;SDS011;40873;47.522;19.106;2023-05-07T03:16:44;20.80;;;13.10;;
54977;SDS011;40873;47.522;19.106;2023-05-07T03:19:15;18.55;;;12.75;;
54977;SDS011;40873;47.522;19.106;2023-05-07T03:21:45;21.50;;;12.05;;
54977;SDS011;40873;47.522;19.106;2023-05-07T03:24:12;21.27;;;13.10;;
54977;SDS011;40873;47.522;19.106;2023-05-07T03:26:39;21.58;;;12.27;;
54977;SDS011;40873;47.522;19.106;2023-05-07T03:29:06;23.98;;;12.75;;
54977;SDS011;40873;47.522;19.106;2023-05-07T03:31:33;21.33;;;13.93;;
54977;SDS011;40873;47.522;19.106;2023-05-07T03:34:00;20.65;;;13.27;;
54977;SDS011;40873;47.522;19.106;2023-05-07T03:36:28;16.73;;;11.70;;
54977;SDS011;40873;47.522;19.106;2023-05-07T03:38:54;19.65;;;12.05;;
54977;SDS011;40873;47.522;19.106;2023-05-07T03:41:21;16.95;;;11.55;;
54977;SDS011;40873;47.522;19.106;2023-05-07T03:43:48;21.80;;;13.18;;
54977;SDS011;40873;47.522;19.106;2023-05-07T03:46:18;19.48;;;12.57;;
54977;SDS011;40873;47.522;19.106;2023-05-07T03:48:45;18.83;;;12.98;;
54977;SDS011;40873;47.522;19.106;2023-05-07T03:51:12;23.35;;;13.88;;
54977;SDS011;40873;47.522;19.106;2023-05-07T03:53:39;22.63;;;12.93;;
54977;SDS011;40873;47.522;19.106;2023-05-07T03:56:06;23.85;;;15.15;;
54977;SDS011;40873;47.522;19.106;2023-05-07T03:58:33;21.75;;;12.40;;
54977;SDS011;40873;47.522;19.106;2023-05-07T04:01:00;22.50;;;12.88;;
54977;SDS011;40873;47.522;19.106;2023-05-07T04:03:30;22.02;;;13.35;;
54977;SDS011;40873;47.522;19.106;2023-05-07T04:05:57;17.65;;;12.82;;
54977;SDS011;40873;47.522;19.106;2023-05-07T04:08:24;19.58;;;13.80;;
54977;SDS011;40873;47.522;19.106;2023-05-07T04:10:54;18.42;;;12.48;;
54977;SDS011;40873;47.522;19.106;2023-05-07T04:13:22;20.77;;;12.23;;
54977;SDS011;40873;47.522;19.106;2023-05-07T04:15:49;19.00;;;11.48;;
54977;SDS011;40873;47.522;19.106;2023-05-07T04:18:19;18.08;;;11.93;;
54977;SDS011;40873;47.522;19.106;2023-05-07T04:20:48;17.25;;;10.68;;
54977;SDS011;40873;47.522;19.106;2023-05-07T04:23:18;19.95;;;10.60;;
54977;SDS011;40873;47.522;19.106;2023-05-07T04:25:45;15.20;;;10.02;;
54977;SDS011;40873;47.522;19.106;2023-05-07T04:28:16;15.02;;;10.02;;
54977;SDS011;40873;47.522;19.106;2023-05-07T04:30:45;18.08;;;11.02;;
54977;SDS011;40873;47.522;19.106;2023-05-07T04:33:13;19.23;;;12.75;;
54977;SDS011;40873;47.522;19.106;2023-05-07T04:35:43;19.20;;;11.68;;
54977;SDS011;40873;47.522;19.106;2023-05-07T04:38:10;15.93;;;10.25;;
54977;SDS011;40873;47.522;19.106;2023-05-07T04:40:41;21.05;;;12.18;;
54977;SDS011;40873;47.522;19.106;2023-05-07T04:43:08;18.50;;;12.07;;
54977;SDS011;40873;47.522;19.106;2023-05-07T04:45:36;16.77;;;11.82;;
54977;SDS011;40873;47.522;19.106;2023-05-07T04:48:03;17.80;;;12.10;;
54977;SDS011;40873;47.522;19.106;2023-05-07T04:50:30;22.77;;;12.13;;
54977;SDS011;40873;47.522;19.106;2023-05-07T04:52:58;25.48;;;10.98;;
54977;SDS011;40873;47.522;19.106;2023-05-07T04:55:25;15.95;;;9.57;;
54977;SDS011;40873;47.522;19.106;2023-05-07T04:57:52;16.88;;;10.65;;
54977;SDS011;40873;47.522;19.106;2023-05-07T05:00:20;16.27;;;9.95;;
54977;SDS011;40873;47.522;19.106;2023-05-07T05:02:47;17.20;;;10.35;;
54977;SDS011;40873;47.522;19.106;2023-05-07T05:05:15;15.15;;;10.05;;
54977;SDS011;40873;47.522;19.106;2023-05-07T05:07:42;15.65;;;11.13;;
54977;SDS011;40873;47.522;19.106;2023-05-07T05:10:11;17.45;;;11.57;;
54977;SDS011;40873;47.522;19.106;2023-05-07T05:12:38;16.02;;;10.10;;
54977;SDS011;40873;47.522;19.106;2023-05-07T05:15:05;13.77;;;9.65;;
54977;SDS011;40873;47.522;19.106;2023-05-07T05:17:35;17.85;;;11.57;;
54977;SDS011;40873;47.522;19.106;2023-05-07T05:20:04;13.25;;;10.02;;
54977;SDS011;40873;47.522;19.106;2023-05-07T05:22:32;18.77;;;10.80;;
54977;SDS011;40873;47.522;19.106;2023-05-07T05:24:59;17.02;;;10.82;;
54977;SDS011;40873;47.522;19.106;2023-05-07T05:27:29;13.68;;;9.95;;
54977;SDS011;40873;47.522;19.106;2023-05-07T05:29:56;16.20;;;10.60;;
54977;SDS011;40873;47.522;19.106;2023-05-07T05:32:26;17.58;;;12.15;;
54977;SDS011;40873;47.522;19.106;2023-05-07T05:34:53;21.15;;;12.55;;
54977;SDS011;40873;47.522;19.106;2023-05-07T05:37:20;19.55;;;13.65;;
54977;SDS011;40873;47.522;19.106;2023-05-07T05:39:47;18.25;;;13.20;;
54977;SDS011;40873;47.522;19.106;2023-05-07T05:42:14;19.00;;;12.38;;
54977;SDS011;40873;47.522;19.106;2023-05-07T05:44:41;18.98;;;13.18;;
54977;SDS011;40873;47.522;19.106;2023-05-07T05:47:08;18.65;;;13.68;;
54977;SDS011;40873;47.522;19.106;2023-05-07T05:49:36;23.92;;;12.85;;
54977;SDS011;40873;47.522;19.106;2023-05-07T05:52:03;15.68;;;11.57;;
54977;SDS011;40873;47.522;19.106;2023-05-07T05:54:30;16.13;;;10.45;;
54977;SDS011;40873;47.522;19.106;2023-05-07T05:56:59;15.00;;;9.52;;
54977;SDS011;40873;47.522;19.106;2023-05-07T05:59:27;14.13;;;9.18;;
54977;SDS011;40873;47.522;19.106;2023-05-07T06:01:53;16.77;;;9.82;;
54977;SDS011;40873;47.522;19.106;2023-05-07T06:04:21;12.25;;;7.60;;
54977;SDS011;40873;47.522;19.106;2023-05-07T06:06:50;8.65;;;6.00;;
54977;SDS011;40873;47.522;19.106;2023-05-07T06:09:20;7.80;;;5.88;;
54977;SDS011;40873;47.522;19.106;2023-05-07T06:11:47;7.65;;;5.72;;
54977;SDS011;40873;47.522;19.106;2023-05-07T06:14:14;11.07;;;6.80;;
54977;SDS011;40873;47.522;19.106;2023-05-07T06:16:41;8.02;;;6.00;;
54977;SDS011;40873;47.522;19.106;2023-05-07T06:19:08;7.60;;;5.88;;
54977;SDS011;40873;47.522;19.106;2023-05-07T06:21:38;11.60;;;6.88;;
54977;SDS011;40873;47.522;19.106;2023-05-07T06:24:05;11.68;;;6.70;;
54977;SDS011;40873;47.522;19.106;2023-05-07T06:26:33;10.43;;;6.82;;
54977;SDS011;40873;47.522;19.106;2023-05-07T06:29:00;13.02;;;7.90;;
54977;SDS011;40873;47.522;19.106;2023-05-07T06:31:29;11.45;;;7.85;;
54977;SDS011;40873;47.522;19.106;2023-05-07T06:34:00;10.70;;;7.13;;
54977;SDS011;40873;47.522;19.106;2023-05-07T06:36:28;9.68;;;7.22;;
54977;SDS011;40873;47.522;19.106;2023-05-07T06:38:56;9.57;;;6.55;;
54977;SDS011;40873;47.522;19.106;2023-05-07T06:41:26;11.15;;;7.38;;
54977;SDS011;40873;47.522;19.106;2023-05-07T06:43:55;11.45;;;7.93;;
54977;SDS011;40873;47.522;19.106;2023-05-07T06:46:22;11.63;;;7.28;;
54977;SDS011;40873;47.522;19.106;2023-05-07T06:48:49;10.07;;;6.70;;
54977;SDS011;40873;47.522;19.106;2023-05-07T06:51:16;8.77;;;5.63;;
54977;SDS011;40873;47.522;19.106;2023-05-07T06:53:44;8.65;;;5.72;;
54977;SDS011;40873;47.522;19.106;2023-05-07T06:56:12;8.38;;;6.05;;
54977;SDS011;40873;47.522;19.106;2023-05-07T06:58:39;9.13;;;5.68;;
54977;SDS011;40873;47.522;19.106;2023-05-07T07:01:06;7.45;;;5.07;;
54977;SDS011;40873;47.522;19.106;2023-05-07T07:03:36;6.25;;;3.97;;
54977;SDS011;40873;47.522;19.106;2023-05-07T07:06:03;6.13;;;4.93;;
54977;SDS011;40873;47.522;19.106;2023-05-07T07:08:30;8.43;;;4.82;;
54977;SDS011;40873;47.522;19.106;2023-05-07T07:10:57;6.13;;;4.63;;
54977;SDS011;40873;47.522;19.106;2023-05-07T07:13:24;7.72;;;4.13;;
54977;SDS011;40873;47.522;19.106;2023-05-07T07:15:54;6.75;;;4.10;;
54977;SDS011;40873;47.522;19.106;2023-05-07T07:18:24;4.35;;;3.35;;
54977;SDS011;40873;47.522;19.106;2023-05-07T07:20:51;8.95;;;4.70;;
54977;SDS011;40873;47.522;19.106;2023-05-07T07:23:21;10.95;;;4.93;;
54977;SDS011;40873;47.522;19.106;2023-05-07T07:25:48;6.97;;;4.60;;
54977;SDS011;40873;47.522;19.106;2023-05-07T07:28:16;6.32;;;4.63;;
54977;SDS011;40873;47.522;19.106;2023-05-07T07:30:44;5.60;;;3.95;;
54977;SDS011;40873;47.522;19.106;2023-05-07T07:33:11;7.40;;;4.00;;
54977;SDS011;40873;47.522;19.106;2023-05-07T07:35:38;8.05;;;3.95;;
54977;SDS011;40873;47.522;19.106;2023-05-07T07:38:05;6.18;;;3.92;;
54977;SDS011;40873;47.522;19.106;2023-05-07T07:40:34;4.85;;;3.53;;
54977;SDS011;40873;47.522;19.106;2023-05-07T07:43:02;4.57;;;3.03;;
54977;SDS011;40873;47.522;19.106;2023-05-07T07:45:31;6.68;;;3.22;;
54977;SDS011;40873;47.522;19.106;2023-05-07T07:47:58;4.65;;;3.00;;
54977;SDS011;40873;47.522;19.106;2023-05-07T07:50:25;7.10;;;4.40;;
54977;SDS011;40873;47.522;19.106;2023-05-07T07:53:08;4.70;;;3.25;;
54977;SDS011;40873;47.522;19.106;2023-05-07T07:55:39;5.22;;;3.38;;
54977;SDS011;40873;47.522;19.106;2023-05-07T07:58:06;5.60;;;2.78;;
54977;SDS011;40873;47.522;19.106;2023-05-07T08:00:33;5.10;;;2.90;;
54977;SDS011;40873;47.522;19.106;2023-05-07T08:03:03;5.07;;;4.00;;
54977;SDS011;40873;47.522;19.106;2023-05-07T08:05:30;4.07;;;2.80;;
54977;SDS011;40873;47.522;19.106;2023-05-07T08:08:00;4.47;;;2.65;;
54977;SDS011;40873;47.522;19.106;2023-05-07T08:10:27;5.78;;;4.32;;
54977;SDS011;40873;47.522;19.106;2023-05-07T08:12:57;4.18;;;2.75;;
54977;SDS011;40873;47.522;19.106;2023-05-07T08:15:24;2.90;;;2.10;;
54977;SDS011;40873;47.522;19.106;2023-05-07T08:17:51;3.67;;;2.42;;
54977;SDS011;40873;47.522;19.106;2023-05-07T08:20:18;5.50;;;2.83;;
54977;SDS011;40873;47.522;19.106;2023-05-07T08:22:45;4.35;;;3.20;;
54977;SDS011;40873;47.522;19.106;2023-05-07T08:25:13;4.57;;;2.97;;
54977;SDS011;40873;47.522;19.106;2023-05-07T08:27:41;5.25;;;3.47;;
54977;SDS011;40873;47.522;19.106;2023-05-07T08:30:07;6.95;;;4.05;;
54977;SDS011;40873;47.522;19.106;2023-05-07T08:32:35;4.35;;;2.70;;
54977;SDS011;40873;47.522;19.106;2023-05-07T08:35:02;3.90;;;2.63;;
54977;SDS011;40873;47.522;19.106;2023-05-07T08:37:30;3.60;;;2.45;;
54977;SDS011;40873;47.522;19.106;2023-05-07T08:39:56;3.22;;;2.00;;
54977;SDS011;40873;47.522;19.106;2023-05-07T08:42:24;4.97;;;2.10;;
54977;SDS011;40873;47.522;19.106;2023-05-07T08:44:53;3.33;;;1.98;;
54977;SDS011;40873;47.522;19.106;2023-05-07T08:47:34;2.58;;;1.80;;
54977;SDS011;40873;47.522;19.106;2023-05-07T08:50:07;3.08;;;2.33;;
54977;SDS011;40873;47.522;19.106;2023-05-07T08:52:40;3.92;;;2.00;;
54977;SDS011;40873;47.522;19.106;2023-05-07T08:55:07;4.10;;;2.38;;
54977;SDS011;40873;47.522;19.106;2023-05-07T08:57:35;4.40;;;2.40;;
54977;SDS011;40873;47.522;19.106;2023-05-07T09:00:06;3.90;;;2.13;;
54977;SDS011;40873;47.522;19.106;2023-05-07T09:02:36;4.80;;;1.95;;
54977;SDS011;40873;47.522;19.106;2023-05-07T09:05:04;4.15;;;1.90;;
54977;SDS011;40873;47.522;19.106;2023-05-07T09:07:32;3.13;;;2.00;;
54977;SDS011;40873;47.522;19.106;2023-05-07T09:10:00;3.38;;;1.40;;
54977;SDS011;40873;47.522;19.106;2023-05-07T09:12:30;2.45;;;1.65;;
54977;SDS011;40873;47.522;19.106;2023-05-07T09:14:57;2.40;;;1.60;;
54977;SDS011;40873;47.522;19.106;2023-05-07T09:17:27;2.72;;;1.80;;
54977;SDS011;40873;47.522;19.106;2023-05-07T09:19:54;4.93;;;1.60;;
54977;SDS011;40873;47.522;19.106;2023-05-07T09:22:22;2.22;;;1.70;;
54977;SDS011;40873;47.522;19.106;2023-05-07T09:24:49;1.75;;;1.40;;
54977;SDS011;40873;47.522;19.106;2023-05-07T09:27:17;1.58;;;1.13;;
54977;SDS011;40873;47.522;19.106;2023-05-07T09:29:44;1.85;;;1.30;;
54977;SDS011;40873;47.522;19.106;2023-05-07T09:32:11;1.55;;;1.15;;
54977;SDS011;40873;47.522;19.106;2023-05-07T09:34:41;1.52;;;1.00;;
54977;SDS011;40873;47.522;19.106;2023-05-07T09:37:08;1.70;;;0.95;;
54977;SDS011;40873;47.522;19.106;2023-05-07T09:39:42;1.98;;;0.90;;
54977;SDS011;40873;47.522;19.106;2023-05-07T09:42:13;1.58;;;1.00;;
54977;SDS011;40873;47.522;19.106;2023-05-07T09:44:43;2.38;;;1.00;;
54977;SDS011;40873;47.522;19.106;2023-05-07T09:47:11;1.85;;;1.05;;
54977;SDS011;40873;47.522;19.106;2023-05-07T09:49:46;3.60;;;2.40;;
54977;SDS011;40873;47.522;19.106;2023-05-07T09:52:14;1.95;;;1.20;;
54977;SDS011;40873;47.522;19.106;2023-05-07T09:54:42;2.58;;;1.42;;
54977;SDS011;40873;47.522;19.106;2023-05-07T09:57:11;3.00;;;1.92;;
54977;SDS011;40873;47.522;19.106;2023-05-07T09:59:38;2.95;;;2.00;;
54977;SDS011;40873;47.522;19.106;2023-05-07T10:02:09;1.83;;;1.35;;
54977;SDS011;40873;47.522;19.106;2023-05-07T10:04:39;2.25;;;1.60;;
54977;SDS011;40873;47.522;19.106;2023-05-07T10:07:08;4.40;;;1.52;;
54977;SDS011;40873;47.522;19.106;2023-05-07T10:09:35;2.88;;;2.05;;
54977;SDS011;40873;47.522;19.106;2023-05-07T10:12:05;4.57;;;2.05;;
54977;SDS011;40873;47.522;19.106;2023-05-07T10:14:33;2.60;;;2.40;;
54977;SDS011;40873;47.522;19.106;2023-05-07T10:17:02;2.42;;;1.80;;
54977;SDS011;40873;47.522;19.106;2023-05-07T10:19:29;3.50;;;1.92;;
54977;SDS011;40873;47.522;19.106;2023-05-07T10:21:59;5.43;;;2.00;;
54977;SDS011;40873;47.522;19.106;2023-05-07T10:24:35;3.42;;;2.13;;
54977;SDS011;40873;47.522;19.106;2023-05-07T10:27:05;3.05;;;2.28;;
54977;SDS011;40873;47.522;19.106;2023-05-07T10:29:39;2.72;;;2.10;;
54977;SDS011;40873;47.522;19.106;2023-05-07T10:35:00;3.03;;;2.00;;
54977;SDS011;40873;47.522;19.106;2023-05-07T10:37:30;7.07;;;2.90;;
54977;SDS011;40873;47.522;19.106;2023-05-07T10:39:57;3.20;;;2.03;;
54977;SDS011;40873;47.522;19.106;2023-05-07T10:42:24;5.68;;;2.97;;
54977;SDS011;40873;47.522;19.106;2023-05-07T10:44:51;4.05;;;1.90;;
54977;SDS011;40873;47.522;19.106;2023-05-07T10:47:18;4.18;;;2.10;;
54977;SDS011;40873;47.522;19.106;2023-05-07T10:54:46;3.60;;;2.42;;
54977;SDS011;40873;47.522;19.106;2023-05-07T10:57:32;4.47;;;2.05;;
54977;SDS011;40873;47.522;19.106;2023-05-07T11:05:28;4.40;;;2.60;;
54977;SDS011;40873;47.522;19.106;2023-05-07T11:07:57;4.55;;;2.50;;
54977;SDS011;40873;47.522;19.106;2023-05-07T11:13:17;3.33;;;2.30;;
54977;SDS011;40873;47.522;19.106;2023-05-07T11:15:45;2.80;;;2.35;;
54977;SDS011;40873;47.522;19.106;2023-05-07T11:18:14;3.65;;;2.53;;
54977;SDS011;40873;47.522;19.106;2023-05-07T11:26:02;4.20;;;3.03;;
54977;SDS011;40873;47.522;19.106;2023-05-07T11:28:40;4.95;;;3.25;;
54977;SDS011;40873;47.522;19.106;2023-05-07T11:31:09;3.97;;;3.33;;
54977;SDS011;40873;47.522;19.106;2023-05-07T11:33:38;2.95;;;2.13;;
54977;SDS011;40873;47.522;19.106;2023-05-07T11:36:07;3.85;;;2.70;;
54977;SDS011;40873;47.522;19.106;2023-05-07T11:38:35;6.95;;;3.00;;
54977;SDS011;40873;47.522;19.106;2023-05-07T11:41:02;4.72;;;2.75;;
54977;SDS011;40873;47.522;19.106;2023-05-07T11:43:32;3.40;;;2.50;;
54977;SDS011;40873;47.522;19.106;2023-05-07T11:46:09;3.88;;;2.58;;
54977;SDS011;40873;47.522;19.106;2023-05-07T11:48:40;2.97;;;2.20;;
54977;SDS011;40873;47.522;19.106;2023-05-07T11:51:08;5.75;;;2.80;;
54977;SDS011;40873;47.522;19.106;2023-05-07T11:53:42;3.30;;;2.40;;
54977;SDS011;40873;47.522;19.106;2023-05-07T11:56:10;4.22;;;2.90;;
54977;SDS011;40873;47.522;19.106;2023-05-07T11:58:39;3.42;;;2.33;;
54977;SDS011;40873;47.522;19.106;2023-05-07T12:01:07;4.65;;;2.35;;
54977;SDS011;40873;47.522;19.106;2023-05-07T12:03:36;3.75;;;2.00;;
54977;SDS011;40873;47.522;19.106;2023-05-07T12:06:07;4.28;;;2.45;;
54977;SDS011;40873;47.522;19.106;2023-05-07T12:08:37;4.82;;;2.22;;
54977;SDS011;40873;47.522;19.106;2023-05-07T12:14:04;2.67;;;2.22;;
54977;SDS011;40873;47.522;19.106;2023-05-07T12:16:34;3.08;;;2.10;;
54977;SDS011;40873;47.522;19.106;2023-05-07T12:19:02;3.53;;;2.30;;
54977;SDS011;40873;47.522;19.106;2023-05-07T12:21:29;4.47;;;2.40;;
54977;SDS011;40873;47.522;19.106;2023-05-07T12:23:56;6.57;;;2.60;;
54977;SDS011;40873;47.522;19.106;2023-05-07T12:26:23;3.35;;;2.22;;
54977;SDS011;40873;47.522;19.106;2023-05-07T12:28:50;3.30;;;2.10;;
54977;SDS011;40873;47.522;19.106;2023-05-07T12:31:17;2.55;;;2.35;;
54977;SDS011;40873;47.522;19.106;2023-05-07T12:33:45;3.88;;;2.17;;
54977;SDS011;40873;47.522;19.106;2023-05-07T12:36:12;5.22;;;1.85;;
54977;SDS011;40873;47.522;19.106;2023-05-07T12:38:40;2.33;;;2.10;;
54977;SDS011;40873;47.522;19.106;2023-05-07T12:41:08;2.17;;;1.83;;
54977;SDS011;40873;47.522;19.106;2023-05-07T12:43:37;3.67;;;2.75;;
54977;SDS011;40873;47.522;19.106;2023-05-07T12:46:06;2.50;;;1.92;;
54977;SDS011;40873;47.522;19.106;2023-05-07T12:48:38;2.17;;;1.60;;
54977;SDS011;40873;47.522;19.106;2023-05-07T12:51:10;3.65;;;2.03;;
54977;SDS011;40873;47.522;19.106;2023-05-07T12:53:39;2.55;;;2.13;;
54977;SDS011;40873;47.522;19.106;2023-05-07T12:56:09;6.70;;;2.30;;
54977;SDS011;40873;47.522;19.106;2023-05-07T12:58:36;4.53;;;2.58;;
54977;SDS011;40873;47.522;19.106;2023-05-07T13:01:04;3.20;;;2.40;;
54977;SDS011;40873;47.522;19.106;2023-05-07T13:03:36;3.20;;;2.15;;
54977;SDS011;40873;47.522;19.106;2023-05-07T13:06:06;4.63;;;2.05;;
54977;SDS011;40873;47.522;19.106;2023-05-07T13:08:40;4.95;;;2.28;;
54977;SDS011;40873;47.522;19.106;2023-05-07T13:13:38;7.30;;;4.80;;
54977;SDS011;40873;47.522;19.106;2023-05-07T13:16:07;6.43;;;2.97;;
54977;SDS011;40873;47.522;19.106;2023-05-07T13:18:37;5.35;;;2.90;;
54977;SDS011;40873;47.522;19.106;2023-05-07T13:21:07;3.80;;;2.30;;
54977;SDS011;40873;47.522;19.106;2023-05-07T13:23:34;8.30;;;4.10;;
54977;SDS011;40873;47.522;19.106;2023-05-07T13:26:01;5.07;;;3.47;;
54977;SDS011;40873;47.522;19.106;2023-05-07T13:28:50;2.70;;;2.08;;
54977;SDS011;40873;47.522;19.106;2023-05-07T13:31:17;4.97;;;2.33;;
54977;SDS011;40873;47.522;19.106;2023-05-07T13:33:44;2.90;;;1.90;;
54977;SDS011;40873;47.522;19.106;2023-05-07T13:36:11;4.72;;;2.20;;
54977;SDS011;40873;47.522;19.106;2023-05-07T13:38:39;5.75;;;2.42;;
54977;SDS011;40873;47.522;19.106;2023-05-07T13:41:06;4.80;;;2.88;;
54977;SDS011;40873;47.522;19.106;2023-05-07T13:43:33;4.07;;;2.70;;
54977;SDS011;40873;47.522;19.106;2023-05-07T13:46:00;3.92;;;2.67;;
54977;SDS011;40873;47.522;19.106;2023-05-07T13:48:27;3.22;;;2.00;;
54977;SDS011;40873;47.522;19.106;2023-05-07T13:50:57;8.52;;;3.05;;
54977;SDS011;40873;47.522;19.106;2023-05-07T13:53:24;4.30;;;3.20;;
54977;SDS011;40873;47.522;19.106;2023-05-07T13:55:54;3.17;;;2.50;;
54977;SDS011;40873;47.522;19.106;2023-05-07T13:58:21;4.25;;;2.25;;
54977;SDS011;40873;47.522;19.106;2023-05-07T14:00:51;5.30;;;2.58;;
54977;SDS011;40873;47.522;19.106;2023-05-07T14:03:18;4.70;;;2.60;;
54977;SDS011;40873;47.522;19.106;2023-05-07T14:05:46;5.03;;;2.80;;
54977;SDS011;40873;47.522;19.106;2023-05-07T14:08:16;4.10;;;2.97;;
54977;SDS011;40873;47.522;19.106;2023-05-07T14:10:46;3.50;;;2.33;;
54977;SDS011;40873;47.522;19.106;2023-05-07T14:13:16;3.53;;;2.45;;
54977;SDS011;40873;47.522;19.106;2023-05-07T14:15:44;3.28;;;2.15;;
54977;SDS011;40873;47.522;19.106;2023-05-07T14:18:15;3.63;;;2.33;;
54977;SDS011;40873;47.522;19.106;2023-05-07T14:20:43;3.63;;;2.20;;
54977;SDS011;40873;47.522;19.106;2023-05-07T14:23:12;2.60;;;1.90;;
54977;SDS011;40873;47.522;19.106;2023-05-07T14:25:39;3.88;;;2.13;;
54977;SDS011;40873;47.522;19.106;2023-05-07T14:28:06;2.58;;;1.95;;
54977;SDS011;40873;47.522;19.106;2023-05-07T14:30:37;3.08;;;1.67;;
54977;SDS011;40873;47.522;19.106;2023-05-07T14:33:04;3.13;;;1.42;;
54977;SDS011;40873;47.522;19.106;2023-05-07T14:35:32;4.85;;;1.90;;
54977;SDS011;40873;47.522;19.106;2023-05-07T14:37:59;2.85;;;1.75;;
54977;SDS011;40873;47.522;19.106;2023-05-07T14:40:29;2.95;;;1.90;;
54977;SDS011;40873;47.522;19.106;2023-05-07T14:42:56;2.78;;;1.95;;
54977;SDS011;40873;47.522;19.106;2023-05-07T14:45:24;1.98;;;1.52;;
54977;SDS011;40873;47.522;19.106;2023-05-07T14:47:51;2.20;;;1.70;;
54977;SDS011;40873;47.522;19.106;2023-05-07T14:50:18;3.35;;;1.98;;
54977;SDS011;40873;47.522;19.106;2023-05-07T14:52:45;2.90;;;2.08;;
54977;SDS011;40873;47.522;19.106;2023-05-07T14:55:12;3.13;;;2.05;;
54977;SDS011;40873;47.522;19.106;2023-05-07T14:57:39;3.88;;;2.50;;